Time;durP1;ratioP1;P1;durP2;ratioP2;P2;SDS_P1;SDS_P2;PMS_P1;PMS_P2;Temp;Humidity;BMP_temperature;BMP_pressure;BME280_temperature;BME280_humidity;BME280_pressure;Samples;Min_cycle;Max_cycle;Signal;HPM_P1;HPM_P2
2023/09/02 00:01:33;;;;;;;8.27;3.20;;;;;;;;;;5074594;28;20036;-76
2023/09/02 00:04:01;;;;;;;5.30;2.80;;;;;;;;;;5069978;28;20031;-76
2023/09/02 00:06:26;;;;;;;4.45;2.78;;;;;;;;;;5060226;28;20465;-75
2023/09/02 00:08:52;;;;;;;5.68;2.90;;;;;;;;;;5067934;28;20020;-76
2023/09/02 00:11:17;;;;;;;5.55;3.10;;;;;;;;;;5068649;28;20480;-76
2023/09/02 00:13:42;;;;;;;6.10;3.00;;;;;;;;;;5064550;28;20029;-77
2023/09/02 00:16:08;;;;;;;6.25;2.90;;;;;;;;;;5058827;28;20028;-76
2023/09/02 00:18:33;;;;;;;4.75;2.70;;;;;;;;;;5068600;28;20029;-76
2023/09/02 00:20:58;;;;;;;6.15;2.90;;;;;;;;;;5068237;28;20024;-75
2023/09/02 00:23:24;;;;;;;5.70;2.90;;;;;;;;;;5069783;28;20039;-77
2023/09/02 00:25:49;;;;;;;5.75;2.60;;;;;;;;;;5072356;28;20107;-76
2023/09/02 00:28:14;;;;;;;7.50;2.97;;;;;;;;;;5071235;28;20091;-77
2023/09/02 00:30:40;;;;;;;5.30;2.50;;;;;;;;;;5072063;28;20082;-77
2023/09/02 00:33:05;;;;;;;5.43;2.72;;;;;;;;;;5053163;28;20073;-76
2023/09/02 00:35:32;;;;;;;4.80;2.90;;;;;;;;;;5072455;28;20043;-76
2023/09/02 00:37:57;;;;;;;5.35;2.50;;;;;;;;;;5071501;28;20059;-75
2023/09/02 00:40:25;;;;;;;5.03;2.58;;;;;;;;;;5071758;28;20051;-77
2023/09/02 00:42:53;;;;;;;5.53;2.72;;;;;;;;;;5071607;28;20025;-77
2023/09/02 00:45:21;;;;;;;6.10;3.35;;;;;;;;;;5071811;28;20364;-77
2023/09/02 00:47:49;;;;;;;4.45;2.65;;;;;;;;;;5070760;28;20645;-77
2023/09/02 00:50:14;;;;;;;5.00;2.70;;;;;;;;;;5071664;28;20024;-76
2023/09/02 00:52:40;;;;;;;4.45;2.70;;;;;;;;;;5070875;28;20028;-76
2023/09/02 00:55:06;;;;;;;5.40;2.50;;;;;;;;;;5071783;28;20021;-76
2023/09/02 00:57:31;;;;;;;5.68;2.70;;;;;;;;;;5071127;28;20085;-78
2023/09/02 00:59:57;;;;;;;4.20;2.60;;;;;;;;;;5071760;28;20040;-76
2023/09/02 01:02:22;;;;;;;4.18;2.70;;;;;;;;;;5071285;28;20115;-75
2023/09/02 01:04:48;;;;;;;4.65;2.65;;;;;;;;;;5071348;28;20031;-77
2023/09/02 01:07:14;;;;;;;3.95;2.50;;;;;;;;;;5071079;28;20029;-78
2023/09/02 01:09:40;;;;;;;6.65;2.67;;;;;;;;;;5071154;28;20559;-78
2023/09/02 01:12:06;;;;;;;5.18;2.50;;;;;;;;;;5071085;28;20066;-76
2023/09/02 01:14:32;;;;;;;4.93;2.50;;;;;;;;;;5071661;28;20040;-78
2023/09/02 01:16:57;;;;;;;6.45;2.55;;;;;;;;;;5070840;28;20028;-77
2023/09/02 01:19:23;;;;;;;4.70;2.67;;;;;;;;;;5071263;28;20036;-76
2023/09/02 01:22:13;;;;;;;4.43;2.40;;;;;;;;;;5055819;28;20032;-76
2023/09/02 01:24:51;;;;;;;4.07;2.65;;;;;;;;;;5065345;28;20028;-78
2023/09/02 01:27:47;;;;;;;4.65;2.67;;;;;;;;;;5070714;28;20029;-77
2023/09/02 01:30:16;;;;;;;5.38;2.88;;;;;;;;;;5068930;28;20594;-76
2023/09/02 01:32:44;;;;;;;7.07;2.60;;;;;;;;;;5070670;28;20086;-76
2023/09/02 01:35:15;;;;;;;5.38;2.70;;;;;;;;;;5070786;28;20023;-75
2023/09/02 01:37:43;;;;;;;3.92;2.50;;;;;;;;;;5069929;28;20028;-79
2023/09/02 01:40:14;;;;;;;6.32;2.60;;;;;;;;;;5071033;28;20027;-77
2023/09/02 01:42:40;;;;;;;5.53;2.53;;;;;;;;;;5070563;28;20039;-76
2023/09/02 01:45:08;;;;;;;4.75;2.10;;;;;;;;;;5071052;28;20024;-79
2023/09/02 01:47:34;;;;;;;6.75;2.25;;;;;;;;;;5070339;28;20029;-78
2023/09/02 01:50:01;;;;;;;7.20;2.38;;;;;;;;;;5070510;28;20021;-77
2023/09/02 01:52:29;;;;;;;4.60;2.30;;;;;;;;;;5070359;28;20055;-76
2023/09/02 01:54:55;;;;;;;4.57;2.20;;;;;;;;;;5070293;28;20030;-78
2023/09/02 01:57:20;;;;;;;4.47;2.30;;;;;;;;;;5070116;28;20032;-76
2023/09/02 01:59:45;;;;;;;6.07;2.40;;;;;;;;;;5070677;28;20392;-77
2023/09/02 02:02:11;;;;;;;5.18;2.38;;;;;;;;;;5069867;28;20034;-77
2023/09/02 02:04:44;;;;;;;4.88;2.20;;;;;;;;;;5070520;28;20097;-76
2023/09/02 02:07:13;;;;;;;5.53;2.45;;;;;;;;;;5069750;28;20036;-77
2023/09/02 02:09:42;;;;;;;5.57;2.30;;;;;;;;;;5069504;28;20020;-76
2023/09/02 02:12:08;;;;;;;5.40;2.40;;;;;;;;;;5070237;28;20032;-77
2023/09/02 02:14:34;;;;;;;3.63;2.30;;;;;;;;;;5069986;28;20044;-79
2023/09/02 02:17:01;;;;;;;3.85;2.20;;;;;;;;;;5069949;28;20074;-78
2023/09/02 02:19:26;;;;;;;5.80;2.30;;;;;;;;;;5069584;28;20521;-75
2023/09/02 02:21:52;;;;;;;5.05;2.25;;;;;;;;;;5070029;28;20024;-78
2023/09/02 02:24:17;;;;;;;7.25;2.40;;;;;;;;;;5050950;28;20054;-78
2023/09/02 02:26:42;;;;;;;5.65;2.33;;;;;;;;;;5057530;28;20056;-78
2023/09/02 02:29:08;;;;;;;5.70;2.50;;;;;;;;;;5059516;28;20049;-78
2023/09/02 02:31:34;;;;;;;5.82;2.33;;;;;;;;;;5061284;28;20025;-78
2023/09/02 02:34:00;;;;;;;4.10;2.20;;;;;;;;;;5069528;28;20040;-77
2023/09/02 02:36:25;;;;;;;6.57;2.55;;;;;;;;;;5069399;28;20037;-78
2023/09/02 02:38:51;;;;;;;5.93;2.47;;;;;;;;;;5068793;28;20116;-77
2023/09/02 02:41:16;;;;;;;3.90;2.30;;;;;;;;;;5069428;28;20028;-78
2023/09/02 02:43:41;;;;;;;4.53;2.30;;;;;;;;;;5069482;28;20033;-79
2023/09/02 02:46:07;;;;;;;4.88;2.20;;;;;;;;;;5068953;28;20020;-79
2023/09/02 02:48:34;;;;;;;5.80;2.40;;;;;;;;;;5069057;28;20052;-79
2023/09/02 02:51:00;;;;;;;4.18;2.28;;;;;;;;;;5069665;28;20067;-78
2023/09/02 02:53:25;;;;;;;3.95;2.33;;;;;;;;;;5069162;28;20434;-77
2023/09/02 02:55:51;;;;;;;4.72;2.30;;;;;;;;;;5069578;28;20017;-78
2023/09/02 02:58:16;;;;;;;5.80;2.25;;;;;;;;;;5068988;28;20068;-78
2023/09/02 03:00:46;;;;;;;4.90;2.05;;;;;;;;;;5062406;28;20069;-79
2023/09/02 03:03:12;;;;;;;6.93;2.00;;;;;;;;;;5064131;28;20035;-79
2023/09/02 03:05:41;;;;;;;5.22;2.30;;;;;;;;;;5069002;28;20029;-79
2023/09/02 03:08:07;;;;;;;8.10;2.13;;;;;;;;;;5068057;28;20029;-79
2023/09/02 03:10:36;;;;;;;4.20;2.30;;;;;;;;;;5069438;28;20031;-76
2023/09/02 03:13:03;;;;;;;3.85;2.33;;;;;;;;;;5069099;28;20491;-79
2023/09/02 03:15:28;;;;;;;4.88;2.30;;;;;;;;;;5069397;28;20032;-79
2023/09/02 03:17:53;;;;;;;4.97;2.00;;;;;;;;;;5068503;28;20040;-79
2023/09/02 03:20:19;;;;;;;4.47;2.17;;;;;;;;;;5069204;28;20111;-79
2023/09/02 03:22:44;;;;;;;3.78;2.00;;;;;;;;;;5067913;28;20027;-76
2023/09/02 03:25:09;;;;;;;4.22;2.00;;;;;;;;;;5068974;28;20025;-78
2023/09/02 03:27:39;;;;;;;4.95;2.35;;;;;;;;;;5068388;28;20025;-78
2023/09/02 03:30:08;;;;;;;5.70;2.30;;;;;;;;;;5043130;28;20032;-79
2023/09/02 03:32:34;;;;;;;4.00;1.90;;;;;;;;;;5068792;28;20052;-78
2023/09/02 03:35:00;;;;;;;4.47;1.95;;;;;;;;;;5057268;28;20037;-78
2023/09/02 03:37:26;;;;;;;3.90;2.08;;;;;;;;;;5062288;28;20033;-78
2023/09/02 03:39:55;;;;;;;3.83;2.10;;;;;;;;;;5056808;28;20029;-79
2023/09/02 03:42:21;;;;;;;4.65;2.20;;;;;;;;;;5048940;28;20072;-79
2023/09/02 03:44:47;;;;;;;5.03;2.10;;;;;;;;;;5067524;28;20105;-79
2023/09/02 03:47:12;;;;;;;3.83;1.98;;;;;;;;;;5068655;28;20016;-79
2023/09/02 03:49:38;;;;;;;5.88;2.08;;;;;;;;;;5068586;28;20036;-78
2023/09/02 03:52:03;;;;;;;3.90;2.40;;;;;;;;;;5068898;28;20029;-76
2023/09/02 03:54:28;;;;;;;5.43;2.38;;;;;;;;;;5050538;28;20120;-77
2023/09/02 03:56:54;;;;;;;3.97;2.10;;;;;;;;;;5069988;28;20024;-78
2023/09/02 03:59:19;;;;;;;3.42;2.00;;;;;;;;;;5067126;28;20028;-75
2023/09/02 04:01:45;;;;;;;4.40;2.28;;;;;;;;;;5072917;28;20558;-77
2023/09/02 04:04:10;;;;;;;4.45;1.90;;;;;;;;;;5072791;28;20055;-76
2023/09/02 04:06:37;;;;;;;3.25;1.90;;;;;;;;;;5054573;28;20611;-77
2023/09/02 04:09:05;;;;;;;5.20;2.00;;;;;;;;;;5058425;28;20030;-77
2023/09/02 04:11:30;;;;;;;4.18;2.10;;;;;;;;;;5072744;28;20035;-76
2023/09/02 04:13:56;;;;;;;3.58;1.88;;;;;;;;;;5071899;28;20025;-76
2023/09/02 04:16:21;;;;;;;3.92;2.00;;;;;;;;;;5072638;28;20090;-75
2023/09/02 04:18:47;;;;;;;3.80;1.88;;;;;;;;;;5072171;28;20600;-78
2023/09/02 04:21:12;;;;;;;6.28;2.00;;;;;;;;;;5072264;28;20138;-78
2023/09/02 04:23:38;;;;;;;2.75;1.80;;;;;;;;;;5071489;28;20024;-78
2023/09/02 04:26:04;;;;;;;4.00;2.15;;;;;;;;;;5072202;28;20043;-77
2023/09/02 04:28:29;;;;;;;2.97;2.00;;;;;;;;;;5071819;28;20048;-76
2023/09/02 04:30:59;;;;;;;2.97;1.90;;;;;;;;;;5071856;28;20082;-78
2023/09/02 04:33:25;;;;;;;3.38;1.85;;;;;;;;;;5071358;28;20036;-75
2023/09/02 04:35:50;;;;;;;3.55;1.98;;;;;;;;;;5064301;28;20028;-77
2023/09/02 04:38:16;;;;;;;4.72;1.95;;;;;;;;;;5070247;28;20025;-75
2023/09/02 04:40:43;;;;;;;6.70;2.10;;;;;;;;;;5071757;28;20029;-78
2023/09/02 04:43:11;;;;;;;3.63;2.00;;;;;;;;;;5071101;28;20040;-77
2023/09/02 04:45:39;;;;;;;4.18;2.20;;;;;;;;;;5071932;28;20031;-76
2023/09/02 04:48:05;;;;;;;5.03;2.40;;;;;;;;;;5071658;28;20507;-77
2023/09/02 04:50:31;;;;;;;3.85;2.20;;;;;;;;;;5072131;28;20020;-78
2023/09/02 04:52:58;;;;;;;5.95;2.72;;;;;;;;;;5057556;28;20028;-76
2023/09/02 04:55:27;;;;;;;5.75;2.70;;;;;;;;;;5059821;28;20036;-78
2023/09/02 04:57:53;;;;;;;4.55;2.53;;;;;;;;;;5058107;28;20070;-76
2023/09/02 05:00:20;;;;;;;4.97;2.80;;;;;;;;;;5071283;28;20461;-76
2023/09/02 05:02:46;;;;;;;4.38;2.40;;;;;;;;;;5071460;28;20028;-76
2023/09/02 05:05:14;;;;;;;5.68;2.58;;;;;;;;;;5071589;28;20021;-78
2023/09/02 05:07:39;;;;;;;6.47;2.38;;;;;;;;;;5070667;28;20580;-76
2023/09/02 05:10:05;;;;;;;3.63;2.00;;;;;;;;;;5070639;28;20038;-76
2023/09/02 05:12:31;;;;;;;6.38;2.35;;;;;;;;;;5071352;28;20025;-75
2023/09/02 05:14:56;;;;;;;4.45;2.15;;;;;;;;;;5070718;28;20087;-76
2023/09/02 05:17:21;;;;;;;9.98;4.93;;;;;;;;;;5071172;28;20052;-78
2023/09/02 05:19:46;;;;;;;6.53;4.05;;;;;;;;;;5070830;28;20104;-77
2023/09/02 05:22:12;;;;;;;5.90;2.60;;;;;;;;;;5070420;28;20492;-77
2023/09/02 05:24:37;;;;;;;9.05;4.60;;;;;;;;;;5070857;28;20036;-77
2023/09/02 05:27:03;;;;;;;8.80;4.55;;;;;;;;;;5071125;28;20039;-78
2023/09/02 05:29:28;;;;;;;6.22;3.88;;;;;;;;;;5071323;28;20045;-78
2023/09/02 05:31:54;;;;;;;5.78;3.42;;;;;;;;;;5069302;28;20021;-78
2023/09/02 05:34:19;;;;;;;6.00;2.55;;;;;;;;;;5059407;28;20408;-78
2023/09/02 05:36:44;;;;;;;4.93;2.75;;;;;;;;;;5071114;28;20047;-77
2023/09/02 05:39:10;;;;;;;4.97;2.53;;;;;;;;;;5072626;28;20389;-76
2023/09/02 05:41:36;;;;;;;7.32;2.40;;;;;;;;;;5070120;28;20040;-76
2023/09/02 05:44:01;;;;;;;4.72;2.65;;;;;;;;;;5073460;28;20046;-76
2023/09/02 05:46:26;;;;;;;5.13;2.55;;;;;;;;;;5072397;28;20031;-78
2023/09/02 05:48:52;;;;;;;4.70;2.30;;;;;;;;;;5070884;28;20056;-78
2023/09/02 05:51:17;;;;;;;5.30;2.65;;;;;;;;;;5070460;28;20097;-75
2023/09/02 05:53:44;;;;;;;6.53;2.55;;;;;;;;;;5069637;28;20037;-78
2023/09/02 05:56:09;;;;;;;4.47;2.47;;;;;;;;;;5070801;28;20035;-74
2023/09/02 05:58:35;;;;;;;4.18;2.50;;;;;;;;;;5070078;28;20029;-74
2023/09/02 06:01:04;;;;;;;4.22;2.55;;;;;;;;;;5070656;28;20530;-77
2023/09/02 06:03:30;;;;;;;4.07;2.40;;;;;;;;;;5070121;28;20503;-78
2023/09/02 06:05:55;;;;;;;5.35;2.50;;;;;;;;;;5070408;28;20032;-77
2023/09/02 06:08:20;;;;;;;8.95;2.60;;;;;;;;;;5070051;28;20097;-78
2023/09/02 06:10:59;;;;;;;4.70;2.50;;;;;;;;;;5070659;28;20016;-76
2023/09/02 06:13:24;;;;;;;4.18;2.20;;;;;;;;;;5069664;28;20411;-78
2023/09/02 06:15:50;;;;;;;6.70;2.60;;;;;;;;;;5070329;28;20039;-77
2023/09/02 06:18:15;;;;;;;4.47;2.55;;;;;;;;;;5069791;28;20028;-78
2023/09/02 06:20:40;;;;;;;6.53;2.53;;;;;;;;;;5068746;28;20123;-77
2023/09/02 06:23:06;;;;;;;6.40;2.42;;;;;;;;;;5069046;28;20035;-74
2023/09/02 06:25:31;;;;;;;4.38;2.50;;;;;;;;;;5070204;28;20029;-75
2023/09/02 06:27:56;;;;;;;5.82;2.70;;;;;;;;;;5069529;28;20603;-78
2023/09/02 06:30:22;;;;;;;5.40;2.60;;;;;;;;;;5069433;28;20052;-76
2023/09/02 06:32:47;;;;;;;5.97;2.60;;;;;;;;;;5070880;28;20059;-77
2023/09/02 06:35:15;;;;;;;5.13;2.50;;;;;;;;;;5069673;28;20103;-78
2023/09/02 06:37:41;;;;;;;5.78;2.85;;;;;;;;;;5069529;28;20029;-79
2023/09/02 06:40:07;;;;;;;7.75;2.58;;;;;;;;;;5068977;28;20016;-77
2023/09/02 06:42:32;;;;;;;5.70;2.35;;;;;;;;;;5068964;28;20025;-76
2023/09/02 06:44:57;;;;;;;5.15;2.58;;;;;;;;;;5066968;28;20017;-78
2023/09/02 06:47:23;;;;;;;4.57;2.33;;;;;;;;;;5072671;28;20065;-79
2023/09/02 06:49:49;;;;;;;3.55;2.20;;;;;;;;;;5071781;28;20141;-79
2023/09/02 06:52:14;;;;;;;4.40;2.50;;;;;;;;;;5071464;28;20032;-82
2023/09/02 06:54:40;;;;;;;4.93;2.30;;;;;;;;;;5074037;28;20020;-83
2023/09/02 06:57:05;;;;;;;5.88;2.42;;;;;;;;;;5070851;28;20113;-80
2023/09/02 06:59:32;;;;;;;3.58;2.40;;;;;;;;;;5069148;28;20025;-83
2023/09/02 07:01:57;;;;;;;3.28;2.10;;;;;;;;;;5071396;28;20390;-85
2023/09/02 07:04:23;;;;;;;4.03;2.38;;;;;;;;;;5065824;28;20105;-81
2023/09/02 07:06:48;;;;;;;5.95;2.40;;;;;;;;;;5060878;28;20078;-80
2023/09/02 07:09:13;;;;;;;5.93;2.50;;;;;;;;;;5053884;28;20036;-84
2023/09/02 07:11:39;;;;;;;6.28;2.50;;;;;;;;;;5058648;28;20070;-82
2023/09/02 07:14:04;;;;;;;5.82;2.28;;;;;;;;;;5059132;28;20531;-83
2023/09/02 07:16:29;;;;;;;6.32;2.40;;;;;;;;;;5058618;28;20069;-83
2023/09/02 07:18:55;;;;;;;4.43;2.50;;;;;;;;;;5068867;28;20024;-82
2023/09/02 07:21:23;;;;;;;5.70;2.47;;;;;;;;;;5070552;28;20024;-80
2023/09/02 07:23:49;;;;;;;5.47;2.70;;;;;;;;;;5050588;28;20033;-84
2023/09/02 07:26:15;;;;;;;5.10;2.50;;;;;;;;;;5072439;28;20016;-85
2023/09/02 07:28:42;;;;;;;5.97;2.50;;;;;;;;;;5052202;28;20759;-87
2023/09/02 07:31:10;;;;;;;4.38;2.30;;;;;;;;;;5060789;28;20025;-85
2023/09/02 07:33:36;;;;;;;5.30;2.30;;;;;;;;;;5068290;28;20100;-79
2023/09/02 07:36:12;;;;;;;7.72;2.40;;;;;;;;;;5069289;28;20048;-83
2023/09/02 07:38:38;;;;;;;4.97;2.45;;;;;;;;;;5065998;28;20024;-82
2023/09/02 07:41:03;;;;;;;4.57;2.40;;;;;;;;;;5069036;28;20634;-83
2023/09/02 07:43:29;;;;;;;6.63;2.40;;;;;;;;;;5068790;28;20040;-82
2023/09/02 07:45:55;;;;;;;4.32;2.40;;;;;;;;;;5068819;28;20051;-83
2023/09/02 07:48:21;;;;;;;3.10;2.10;;;;;;;;;;5068542;28;20027;-84
2023/09/02 07:50:46;;;;;;;3.50;2.13;;;;;;;;;;5068297;28;20056;-83
2023/09/02 07:53:13;;;;;;;5.63;2.20;;;;;;;;;;5067991;28;20029;-82
2023/09/02 07:55:38;;;;;;;3.55;1.90;;;;;;;;;;5068793;28;20061;-83
2023/09/02 07:58:04;;;;;;;3.75;1.95;;;;;;;;;;5068640;28;20483;-83
2023/09/02 08:00:30;;;;;;;4.13;2.08;;;;;;;;;;5068462;28;20052;-83
2023/09/02 08:02:57;;;;;;;4.05;2.00;;;;;;;;;;5068415;28;20052;-83
2023/09/02 08:05:23;;;;;;;5.43;2.20;;;;;;;;;;5068639;28;20040;-79
2023/09/02 08:07:48;;;;;;;4.85;1.80;;;;;;;;;;5067890;28;20027;-80
2023/09/02 08:10:13;;;;;;;5.15;2.17;;;;;;;;;;5068142;28;20021;-79
2023/09/02 08:12:39;;;;;;;3.08;1.90;;;;;;;;;;5068371;28;20023;-80
2023/09/02 08:15:05;;;;;;;5.32;1.90;;;;;;;;;;5068340;28;20089;-78
2023/09/02 08:17:35;;;;;;;3.67;1.88;;;;;;;;;;5068593;28;20024;-84
2023/09/02 08:20:00;;;;;;;3.78;1.88;;;;;;;;;;5068372;28;20031;-80
2023/09/02 08:22:25;;;;;;;3.05;1.90;;;;;;;;;;5067752;28;20101;-81
2023/09/02 08:24:51;;;;;;;4.20;1.73;;;;;;;;;;5068267;28;20067;-79
2023/09/02 08:27:16;;;;;;;5.78;2.05;;;;;;;;;;5050034;28;20044;-79
2023/09/02 08:29:42;;;;;;;4.22;1.80;;;;;;;;;;5067749;28;20080;-80
2023/09/02 08:32:07;;;;;;;5.30;1.77;;;;;;;;;;5068033;28;20083;-80
2023/09/02 08:34:32;;;;;;;4.75;1.90;;;;;;;;;;5050140;28;20055;-82
2023/09/02 08:36:58;;;;;;;5.88;1.90;;;;;;;;;;5068151;28;20025;-81
2023/09/02 08:39:23;;;;;;;3.83;2.20;;;;;;;;;;5068201;28;20016;-82
2023/09/02 08:41:50;;;;;;;3.42;1.80;;;;;;;;;;5068039;28;20061;-83
2023/09/02 08:44:17;;;;;;;4.55;1.75;;;;;;;;;;5069887;28;20093;-80
2023/09/02 08:46:45;;;;;;;3.42;1.92;;;;;;;;;;5053668;28;20028;-79
2023/09/02 08:49:11;;;;;;;2.55;1.70;;;;;;;;;;5071477;28;20048;-83
2023/09/02 08:51:40;;;;;;;3.38;1.77;;;;;;;;;;5071696;28;20533;-80
2023/09/02 08:54:06;;;;;;;2.33;1.63;;;;;;;;;;5070874;28;20067;-80
2023/09/02 08:56:31;;;;;;;4.15;1.60;;;;;;;;;;5054033;28;20048;-78
2023/09/02 08:58:57;;;;;;;6.28;1.90;;;;;;;;;;5070951;28;20020;-79
2023/09/02 09:01:23;;;;;;;3.28;1.70;;;;;;;;;;5058782;28;20427;-80
2023/09/02 09:03:52;;;;;;;5.10;1.90;;;;;;;;;;5071390;28;20037;-79
2023/09/02 09:06:21;;;;;;;4.30;1.90;;;;;;;;;;5067223;28;20134;-78
2023/09/02 09:08:47;;;;;;;3.63;1.95;;;;;;;;;;5055578;28;20028;-80
2023/09/02 09:11:15;;;;;;;4.60;1.70;;;;;;;;;;5055868;28;20047;-78
2023/09/02 09:13:45;;;;;;;4.13;2.08;;;;;;;;;;5071709;28;20128;-81
2023/09/02 09:16:16;;;;;;;3.78;1.85;;;;;;;;;;5071082;28;20028;-81
2023/09/02 09:18:41;;;;;;;3.60;1.70;;;;;;;;;;5071393;28;20025;-80
2023/09/02 09:21:07;;;;;;;3.38;1.88;;;;;;;;;;5071291;28;20130;-79
2023/09/02 09:23:35;;;;;;;4.45;2.10;;;;;;;;;;5070867;28;20028;-78
2023/09/02 09:26:03;;;;;;;2.75;1.80;;;;;;;;;;5070797;28;20052;-79
2023/09/02 09:29:00;;;;;;;3.58;1.90;;;;;;;;;;5071046;28;20055;-80
2023/09/02 09:31:26;;;;;;;3.28;1.70;;;;;;;;;;5053098;28;20025;-80
2023/09/02 09:33:54;;;;;;;5.80;2.10;;;;;;;;;;5070141;28;20035;-79
2023/09/02 09:36:23;;;;;;;3.70;1.70;;;;;;;;;;5069481;28;20149;-79
2023/09/02 09:38:56;;;;;;;8.43;1.90;;;;;;;;;;5051385;28;20044;-80
2023/09/02 09:41:23;;;;;;;4.43;1.70;;;;;;;;;;5070456;28;20024;-81
2023/09/02 09:44:04;;;;;;;4.60;1.80;;;;;;;;;;5052757;28;20035;-79
2023/09/02 09:46:33;;;;;;;7.20;1.90;;;;;;;;;;5070717;28;20386;-80
2023/09/02 09:49:01;;;;;;;4.53;1.90;;;;;;;;;;5070230;28;20039;-79
2023/09/02 09:51:27;;;;;;;3.33;1.80;;;;;;;;;;5070729;28;20059;-82
2023/09/02 09:53:52;;;;;;;3.30;1.75;;;;;;;;;;5069483;28;20040;-78
2023/09/02 09:56:18;;;;;;;4.07;1.80;;;;;;;;;;5070458;28;20032;-81
2023/09/02 09:58:43;;;;;;;4.13;1.80;;;;;;;;;;5069891;28;20024;-82
2023/09/02 10:01:09;;;;;;;4.75;1.60;;;;;;;;;;5070110;28;20207;-82
2023/09/02 10:03:35;;;;;;;4.22;1.90;;;;;;;;;;5059910;28;20507;-81
2023/09/02 10:06:01;;;;;;;7.35;1.90;;;;;;;;;;5065590;28;20029;-79
2023/09/02 10:08:27;;;;;;;3.90;1.80;;;;;;;;;;5062445;28;20651;-82
2023/09/02 10:10:53;;;;;;;4.57;1.73;;;;;;;;;;5069298;28;20020;-82
2023/09/02 10:13:21;;;;;;;5.07;1.70;;;;;;;;;;5052378;28;21567;-77
2023/09/02 10:15:47;;;;;;;3.95;2.10;;;;;;;;;;5070015;28;20035;-82
2023/09/02 10:18:16;;;;;;;6.20;1.80;;;;;;;;;;5069351;28;20576;-80
2023/09/02 10:20:41;;;;;;;2.33;1.52;;;;;;;;;;5066294;28;20107;-79
2023/09/02 10:23:09;;;;;;;3.72;1.80;;;;;;;;;;5063687;28;20135;-84
2023/09/02 10:25:52;;;;;;;4.85;2.13;;;;;;;;;;5070312;28;20032;-83
2023/09/02 10:28:24;;;;;;;4.18;1.80;;;;;;;;;;5069671;28;20124;-83
2023/09/02 10:30:55;;;;;;;5.53;1.80;;;;;;;;;;5070045;28;20082;-82
2023/09/02 10:33:43;;;;;;;4.45;1.73;;;;;;;;;;5068851;28;20028;-82
2023/09/02 10:36:09;;;;;;;3.65;1.80;;;;;;;;;;5071466;28;20038;-84
2023/09/02 10:38:42;;;;;;;6.53;3.65;;;;;;;;;;5072020;28;20025;-78
2023/09/02 10:41:12;;;;;;;4.63;2.30;;;;;;;;;;5068511;28;20108;-81
2023/09/02 10:43:39;;;;;;;4.82;2.20;;;;;;;;;;5051123;28;20051;-82
2023/09/02 10:46:06;;;;;;;4.35;2.00;;;;;;;;;;5068928;28;20033;-78
2023/09/02 10:48:33;;;;;;;2.70;1.42;;;;;;;;;;5069668;28;20024;-82
2023/09/02 10:50:59;;;;;;;2.85;1.67;;;;;;;;;;5069098;28;21301;-79
2023/09/02 10:53:53;;;;;;;2.15;1.40;;;;;;;;;;5069040;28;20117;-81
2023/09/02 10:56:24;;;;;;;3.70;1.33;;;;;;;;;;5042911;28;20484;-81
2023/09/02 10:58:49;;;;;;;3.08;1.60;;;;;;;;;;5068976;28;20090;-80
2023/09/02 11:01:15;;;;;;;3.05;1.50;;;;;;;;;;5069206;28;20024;-81
2023/09/02 11:03:45;;;;;;;2.42;1.40;;;;;;;;;;5068793;28;20044;-82
2023/09/02 11:06:17;;;;;;;2.85;1.52;;;;;;;;;;5065949;28;20472;-77
2023/09/02 11:08:52;;;;;;;2.35;1.50;;;;;;;;;;5058806;28;20025;-81
2023/09/02 11:11:18;;;;;;;2.55;1.60;;;;;;;;;;5059954;28;20056;-81
2023/09/02 11:14:05;;;;;;;3.72;1.50;;;;;;;;;;5049890;28;20057;-85
2023/09/02 11:16:31;;;;;;;2.30;1.42;;;;;;;;;;5034586;28;20056;-78
2023/09/02 11:18:57;;;;;;;2.10;1.23;;;;;;;;;;5051627;28;20063;-83
2023/09/02 11:21:39;;;;;;;2.17;1.40;;;;;;;;;;5051166;28;20115;-83
2023/09/02 11:24:18;;;;;;;3.63;1.30;;;;;;;;;;5041415;28;20028;-82
2023/09/02 11:26:53;;;;;;;2.88;1.40;;;;;;;;;;5050798;28;20031;-81
2023/09/02 11:29:22;;;;;;;2.15;1.40;;;;;;;;;;5054463;28;20140;-83
2023/09/02 11:32:03;;;;;;;2.63;1.52;;;;;;;;;;5060316;28;20040;-83
2023/09/02 11:34:31;;;;;;;2.55;1.50;;;;;;;;;;5066909;28;20028;-82
2023/09/02 11:36:58;;;;;;;2.78;1.40;;;;;;;;;;5056094;28;20094;-81
2023/09/02 11:39:27;;;;;;;2.88;1.40;;;;;;;;;;5062299;28;20158;-81
2023/09/02 11:42:12;;;;;;;2.45;1.30;;;;;;;;;;5052558;28;20036;-76
2023/09/02 11:44:38;;;;;;;3.30;1.30;;;;;;;;;;5058723;28;20037;-82
2023/09/02 11:47:05;;;;;;;2.33;1.40;;;;;;;;;;5056501;28;20047;-82
2023/09/02 11:49:30;;;;;;;3.22;1.48;;;;;;;;;;5056413;28;20074;-80
2023/09/02 11:51:55;;;;;;;2.47;1.40;;;;;;;;;;5053453;28;20029;-82
2023/09/02 11:54:21;;;;;;;2.33;1.40;;;;;;;;;;5048157;28;20029;-81
2023/09/02 11:57:00;;;;;;;3.13;1.40;;;;;;;;;;5057857;28;20116;-83
2023/09/02 11:59:26;;;;;;;2.33;1.50;;;;;;;;;;5058556;28;20028;-82
2023/09/02 12:02:12;;;;;;;3.50;1.50;;;;;;;;;;5068454;28;20025;-82
2023/09/02 12:04:44;;;;;;;4.25;1.50;;;;;;;;;;5056690;28;20170;-81
2023/09/02 12:07:10;;;;;;;3.92;1.50;;;;;;;;;;5055446;28;20032;-81
2023/09/02 12:09:36;;;;;;;2.30;1.40;;;;;;;;;;5057611;28;20024;-79
2023/09/02 12:12:02;;;;;;;3.70;1.40;;;;;;;;;;5058650;28;20024;-79
2023/09/02 12:14:28;;;;;;;2.63;1.70;;;;;;;;;;5062095;28;20071;-78
2023/09/02 12:16:54;;;;;;;2.35;1.60;;;;;;;;;;5061830;28;20040;-79
2023/09/02 12:19:21;;;;;;;4.40;1.40;;;;;;;;;;5061363;28;20039;-77
2023/09/02 12:21:47;;;;;;;2.80;1.63;;;;;;;;;;5052597;28;20051;-75
2023/09/02 12:24:13;;;;;;;3.38;1.38;;;;;;;;;;5063040;28;20455;-75
2023/09/02 12:26:49;;;;;;;2.83;1.70;;;;;;;;;;5072341;28;20024;-78
2023/09/02 12:29:18;;;;;;;3.20;1.70;;;;;;;;;;5066568;28;20055;-77
2023/09/02 12:32:00;;;;;;;3.17;1.60;;;;;;;;;;5057918;28;20033;-78
2023/09/02 12:34:36;;;;;;;3.70;1.60;;;;;;;;;;5056791;28;20036;-76
2023/09/02 12:37:20;;;;;;;2.88;1.60;;;;;;;;;;5052766;28;20555;-75
2023/09/02 12:39:47;;;;;;;6.38;1.80;;;;;;;;;;5040981;28;20041;-76
2023/09/02 12:42:25;;;;;;;3.20;1.83;;;;;;;;;;5059317;28;20037;-78
2023/09/02 12:44:52;;;;;;;2.85;1.60;;;;;;;;;;5048261;28;20029;-76
2023/09/02 12:47:23;;;;;;;2.72;1.60;;;;;;;;;;5050868;28;20044;-77
2023/09/02 12:49:51;;;;;;;5.40;1.83;;;;;;;;;;5052026;28;20108;-78
2023/09/02 12:52:27;;;;;;;2.90;1.70;;;;;;;;;;5032380;28;20052;-79
2023/09/02 12:55:04;;;;;;;4.43;1.95;;;;;;;;;;5046173;28;20092;-78
2023/09/02 12:57:31;;;;;;;2.60;1.60;;;;;;;;;;5052030;28;20131;-77
2023/09/02 12:59:58;;;;;;;4.25;1.67;;;;;;;;;;5063806;28;20021;-75
2023/09/02 13:02:25;;;;;;;2.72;1.70;;;;;;;;;;5067200;28;20039;-76
2023/09/02 13:04:51;;;;;;;3.60;2.47;;;;;;;;;;5057252;28;20024;-76
2023/09/02 13:07:19;;;;;;;2.50;1.63;;;;;;;;;;5064521;28;20040;-78
2023/09/02 13:09:45;;;;;;;2.60;1.60;;;;;;;;;;5056004;28;20040;-77
2023/09/02 13:12:10;;;;;;;4.22;1.70;;;;;;;;;;5038798;28;20032;-78
2023/09/02 13:14:38;;;;;;;4.13;1.80;;;;;;;;;;5062273;28;20041;-77
2023/09/02 13:17:03;;;;;;;2.83;1.75;;;;;;;;;;5067290;28;20078;-78
2023/09/02 13:19:29;;;;;;;3.13;1.50;;;;;;;;;;5065951;28;20044;-78
2023/09/02 13:21:55;;;;;;;3.90;1.80;;;;;;;;;;5066470;28;20036;-77
2023/09/02 13:24:24;;;;;;;2.83;1.80;;;;;;;;;;5064755;28;20115;-80
2023/09/02 13:26:50;;;;;;;3.03;1.73;;;;;;;;;;5068825;28;20032;-80
2023/09/02 13:29:17;;;;;;;6.93;1.77;;;;;;;;;;5065450;28;20206;-80
2023/09/02 13:31:46;;;;;;;3.15;1.75;;;;;;;;;;5063916;28;20033;-83
2023/09/02 13:34:29;;;;;;;2.88;1.60;;;;;;;;;;5065573;28;20113;-81
2023/09/02 13:37:24;;;;;;;3.67;1.90;;;;;;;;;;5058631;28;20221;-82
2023/09/02 13:39:58;;;;;;;2.40;1.50;;;;;;;;;;5048604;28;20723;-83
2023/09/02 13:42:24;;;;;;;3.13;1.70;;;;;;;;;;5063495;28;20029;-81
2023/09/02 13:44:50;;;;;;;3.53;1.70;;;;;;;;;;5063687;28;20117;-78
2023/09/02 13:47:18;;;;;;;2.50;1.70;;;;;;;;;;5064964;28;20187;-76
2023/09/02 13:49:53;;;;;;;3.05;1.85;;;;;;;;;;5072196;28;20024;-77
2023/09/02 13:52:20;;;;;;;;;;;;;;;;;;5058384;28;20047;-84
2023/09/02 13:54:46;;;;;;;2.70;1.80;;;;;;;;;;5065311;28;20218;-80
2023/09/02 13:57:11;;;;;;;3.58;1.80;;;;;;;;;;5070418;28;20164;-82
2023/09/02 13:59:36;;;;;;;4.72;1.88;;;;;;;;;;5068654;28;20332;-80
2023/09/02 14:02:07;;;;;;;3.22;1.70;;;;;;;;;;5064389;28;20103;-82
2023/09/02 14:04:33;;;;;;;3.50;1.90;;;;;;;;;;5062036;28;20215;-82
2023/09/02 14:06:59;;;;;;;3.30;1.70;;;;;;;;;;5062164;28;20232;-85
2023/09/02 14:09:25;;;;;;;2.65;1.60;;;;;;;;;;5073118;28;20296;-82
2023/09/02 14:11:50;;;;;;;2.40;1.70;;;;;;;;;;5072003;28;20024;-83
2023/09/02 14:14:20;;;;;;;2.45;1.70;;;;;;;;;;5055902;28;20021;-77
2023/09/02 14:16:49;;;;;;;2.65;1.70;;;;;;;;;;5060700;28;20028;-78
2023/09/02 14:19:17;;;;;;;2.92;1.70;;;;;;;;;;5050640;28;20020;-82
2023/09/02 14:21:43;;;;;;;5.03;1.90;;;;;;;;;;5066591;28;20021;-82
2023/09/02 14:24:09;;;;;;;2.72;1.70;;;;;;;;;;5067932;28;20076;-82
2023/09/02 14:26:34;;;;;;;2.83;1.80;;;;;;;;;;5058871;28;20502;-81
2023/09/02 14:29:00;;;;;;;3.67;1.73;;;;;;;;;;5050662;28;20503;-82
2023/09/02 14:31:25;;;;;;;4.50;1.70;;;;;;;;;;5052357;28;20056;-80
2023/09/02 14:33:52;;;;;;;4.22;1.80;;;;;;;;;;5057623;28;20579;-78
2023/09/02 14:36:17;;;;;;;4.68;1.80;;;;;;;;;;5051478;28;20056;-81
2023/09/02 14:38:42;;;;;;;4.28;1.98;;;;;;;;;;5048689;28;20025;-77
2023/09/02 14:41:09;;;;;;;5.72;2.05;;;;;;;;;;5048342;28;20533;-75
2023/09/02 14:43:34;;;;;;;9.13;2.20;;;;;;;;;;5052744;28;20061;-80
2023/09/02 14:46:00;;;;;;;4.15;1.60;;;;;;;;;;5048528;28;20064;-80